Terminal Aerodrome Forecast
Issued by NWS Shreveport, LA

Home | Current Version | Previous Version | Text Only | Print | Product List | Glossary On
Versions: 1 2 3 4 5 6 7 8 9 10 11 12 13 14 15 16 17
273
FTUS44 KSHV 241720
TAFGGG
TAF
KGGG 241720Z 2418/2518 17010KT P6SM BKN025
     FM241900 16010KT P6SM SCT040 BKN100
     FM250900 18010KT P6SM BKN015
     FM251700 17012KT P6SM SCT015 BKN250=

USA.gov is the U.S. government's official web portal to all federal, state and local government web resources and services.